sensor_id;sensor_type;location;lat;lon;timestamp;temperature;humidity
68485;DHT22;55472;50.060;21.960;2022-08-21T00:01:44;22.70;73.80
68485;DHT22;55472;50.060;21.960;2022-08-21T00:04:10;22.70;73.60
68485;DHT22;55472;50.060;21.960;2022-08-21T00:06:37;22.60;73.80
68485;DHT22;55472;50.060;21.960;2022-08-21T00:09:05;22.60;74.00
68485;DHT22;55472;50.060;21.960;2022-08-21T00:11:35;22.60;73.90
68485;DHT22;55472;50.060;21.960;2022-08-21T00:14:03;22.60;73.90
68485;DHT22;55472;50.060;21.960;2022-08-21T00:16:31;22.50;74.00
68485;DHT22;55472;50.060;21.960;2022-08-21T00:18:57;22.50;74.20
68485;DHT22;55472;50.060;21.960;2022-08-21T00:21:23;22.50;74.00
68485;DHT22;55472;50.060;21.960;2022-08-21T00:23:51;22.40;74.20
68485;DHT22;55472;50.060;21.960;2022-08-21T00:26:17;22.40;74.20
68485;DHT22;55472;50.060;21.960;2022-08-21T00:28:43;22.40;74.30
68485;DHT22;55472;50.060;21.960;2022-08-21T00:31:11;22.40;74.20
68485;DHT22;55472;50.060;21.960;2022-08-21T00:33:38;22.30;74.00
68485;DHT22;55472;50.060;21.960;2022-08-21T00:36:04;22.30;73.90
68485;DHT22;55472;50.060;21.960;2022-08-21T00:38:30;22.30;74.00
68485;DHT22;55472;50.060;21.960;2022-08-21T00:40:59;22.20;74.10
68485;DHT22;55472;50.060;21.960;2022-08-21T00:43:37;22.20;74.00
68485;DHT22;55472;50.060;21.960;2022-08-21T00:46:06;22.20;74.00
68485;DHT22;55472;50.060;21.960;2022-08-21T00:48:33;22.10;74.20
68485;DHT22;55472;50.060;21.960;2022-08-21T00:51:04;22.00;74.50
68485;DHT22;55472;50.060;21.960;2022-08-21T00:53:35;22.00;74.50
68485;DHT22;55472;50.060;21.960;2022-08-21T00:56:05;22.00;74.60
68485;DHT22;55472;50.060;21.960;2022-08-21T00:58:33;22.00;74.90
68485;DHT22;55472;50.060;21.960;2022-08-21T01:01:03;21.90;74.80
68485;DHT22;55472;50.060;21.960;2022-08-21T01:03:30;21.90;74.50
68485;DHT22;55472;50.060;21.960;2022-08-21T01:05:57;21.90;74.40
68485;DHT22;55472;50.060;21.960;2022-08-21T01:08:23;21.90;74.50
68485;DHT22;55472;50.060;21.960;2022-08-21T01:10:51;21.80;74.60
68485;DHT22;55472;50.060;21.960;2022-08-21T01:13:19;21.80;74.70
68485;DHT22;55472;50.060;21.960;2022-08-21T01:15:48;21.80;74.90
68485;DHT22;55472;50.060;21.960;2022-08-21T01:18:17;21.70;75.10
68485;DHT22;55472;50.060;21.960;2022-08-21T01:20:58;21.70;74.80
68485;DHT22;55472;50.060;21.960;2022-08-21T01:23:24;21.70;75.00
68485;DHT22;55472;50.060;21.960;2022-08-21T01:25:50;21.60;75.30
68485;DHT22;55472;50.060;21.960;2022-08-21T01:28:16;21.60;75.20
68485;DHT22;55472;50.060;21.960;2022-08-21T01:30:43;21.60;75.50
68485;DHT22;55472;50.060;21.960;2022-08-21T01:33:09;21.60;75.60
68485;DHT22;55472;50.060;21.960;2022-08-21T01:35:36;21.50;75.50
68485;DHT22;55472;50.060;21.960;2022-08-21T01:38:02;21.50;75.50
68485;DHT22;55472;50.060;21.960;2022-08-21T01:40:28;21.50;75.10
68485;DHT22;55472;50.060;21.960;2022-08-21T01:42:54;21.50;75.20
68485;DHT22;55472;50.060;21.960;2022-08-21T01:45:20;21.50;75.10
68485;DHT22;55472;50.060;21.960;2022-08-21T01:47:47;21.40;75.40
68485;DHT22;55472;50.060;21.960;2022-08-21T01:50:15;21.40;75.50
68485;DHT22;55472;50.060;21.960;2022-08-21T01:52:42;21.30;75.70
68485;DHT22;55472;50.060;21.960;2022-08-21T01:55:10;21.30;75.50
68485;DHT22;55472;50.060;21.960;2022-08-21T01:57:39;21.30;75.40
68485;DHT22;55472;50.060;21.960;2022-08-21T02:00:11;21.20;75.90
68485;DHT22;55472;50.060;21.960;2022-08-21T02:02:43;21.20;75.50
68485;DHT22;55472;50.060;21.960;2022-08-21T02:05:11;21.20;75.80
68485;DHT22;55472;50.060;21.960;2022-08-21T02:07:40;21.10;75.70
68485;DHT22;55472;50.060;21.960;2022-08-21T02:10:13;21.10;76.00
68485;DHT22;55472;50.060;21.960;2022-08-21T02:12:40;21.10;76.30
68485;DHT22;55472;50.060;21.960;2022-08-21T02:15:07;21.10;76.40
68485;DHT22;55472;50.060;21.960;2022-08-21T02:17:54;21.10;76.50
68485;DHT22;55472;50.060;21.960;2022-08-21T02:20:31;21.00;75.80
68485;DHT22;55472;50.060;21.960;2022-08-21T02:23:00;20.80;76.80
68485;DHT22;55472;50.060;21.960;2022-08-21T02:25:27;20.70;77.60
68485;DHT22;55472;50.060;21.960;2022-08-21T02:27:53;20.70;78.00
68485;DHT22;55472;50.060;21.960;2022-08-21T02:30:26;20.70;78.40
68485;DHT22;55472;50.060;21.960;2022-08-21T02:32:54;20.80;78.10
68485;DHT22;55472;50.060;21.960;2022-08-21T02:35:21;20.80;77.50
68485;DHT22;55472;50.060;21.960;2022-08-21T02:37:52;20.80;77.20
68485;DHT22;55472;50.060;21.960;2022-08-21T02:40:23;20.90;76.80
68485;DHT22;55472;50.060;21.960;2022-08-21T02:42:52;20.90;76.60
68485;DHT22;55472;50.060;21.960;2022-08-21T02:45:18;20.90;76.00
68485;DHT22;55472;50.060;21.960;2022-08-21T02:47:53;20.90;76.30
68485;DHT22;55472;50.060;21.960;2022-08-21T02:50:25;20.80;76.80
68485;DHT22;55472;50.060;21.960;2022-08-21T02:52:57;20.80;76.60
68485;DHT22;55472;50.060;21.960;2022-08-21T02:55:25;20.70;77.20
68485;DHT22;55472;50.060;21.960;2022-08-21T02:57:54;20.70;77.40
68485;DHT22;55472;50.060;21.960;2022-08-21T03:00:22;20.70;77.30
68485;DHT22;55472;50.060;21.960;2022-08-21T03:02:49;20.70;77.20
68485;DHT22;55472;50.060;21.960;2022-08-21T03:05:16;20.70;77.40
68485;DHT22;55472;50.060;21.960;2022-08-21T03:07:44;20.70;77.40
68485;DHT22;55472;50.060;21.960;2022-08-21T03:10:12;20.70;76.80
68485;DHT22;55472;50.060;21.960;2022-08-21T03:12:39;20.70;76.70
68485;DHT22;55472;50.060;21.960;2022-08-21T03:15:07;20.70;76.10
68485;DHT22;55472;50.060;21.960;2022-08-21T03:17:35;20.70;76.30
68485;DHT22;55472;50.060;21.960;2022-08-21T03:20:03;20.60;76.20
68485;DHT22;55472;50.060;21.960;2022-08-21T03:22:30;20.60;76.40
68485;DHT22;55472;50.060;21.960;2022-08-21T03:24:58;20.60;76.30
68485;DHT22;55472;50.060;21.960;2022-08-21T03:27:25;20.60;76.50
68485;DHT22;55472;50.060;21.960;2022-08-21T03:29:52;20.50;76.70
68485;DHT22;55472;50.060;21.960;2022-08-21T03:32:20;20.50;76.30
68485;DHT22;55472;50.060;21.960;2022-08-21T03:34:46;20.50;76.30
68485;DHT22;55472;50.060;21.960;2022-08-21T03:37:12;20.40;77.00
68485;DHT22;55472;50.060;21.960;2022-08-21T03:39:39;20.30;77.70
68485;DHT22;55472;50.060;21.960;2022-08-21T03:42:07;20.30;77.30
68485;DHT22;55472;50.060;21.960;2022-08-21T03:44:34;20.30;77.20
68485;DHT22;55472;50.060;21.960;2022-08-21T03:47:01;20.20;77.50
68485;DHT22;55472;50.060;21.960;2022-08-21T03:49:27;20.30;77.50
68485;DHT22;55472;50.060;21.960;2022-08-21T03:51:53;20.30;77.10
68485;DHT22;55472;50.060;21.960;2022-08-21T03:54:20;20.30;77.00
68485;DHT22;55472;50.060;21.960;2022-08-21T03:56:46;20.30;76.80
68485;DHT22;55472;50.060;21.960;2022-08-21T03:59:12;20.30;76.60
68485;DHT22;55472;50.060;21.960;2022-08-21T04:01:40;20.30;76.80
68485;DHT22;55472;50.060;21.960;2022-08-21T04:04:16;20.30;76.90
68485;DHT22;55472;50.060;21.960;2022-08-21T04:06:42;20.30;76.80
68485;DHT22;55472;50.060;21.960;2022-08-21T04:09:09;20.20;77.00
68485;DHT22;55472;50.060;21.960;2022-08-21T04:11:35;20.20;77.20
68485;DHT22;55472;50.060;21.960;2022-08-21T04:14:01;20.20;77.50
68485;DHT22;55472;50.060;21.960;2022-08-21T04:16:26;20.20;77.70
68485;DHT22;55472;50.060;21.960;2022-08-21T04:18:53;20.20;77.90
68485;DHT22;55472;50.060;21.960;2022-08-21T04:21:19;20.30;77.90
68485;DHT22;55472;50.060;21.960;2022-08-21T04:23:45;20.30;78.00
68485;DHT22;55472;50.060;21.960;2022-08-21T04:26:11;20.30;78.10
68485;DHT22;55472;50.060;21.960;2022-08-21T04:28:37;20.30;78.10
68485;DHT22;55472;50.060;21.960;2022-08-21T04:31:03;20.30;78.30
68485;DHT22;55472;50.060;21.960;2022-08-21T04:33:29;20.40;78.00
68485;DHT22;55472;50.060;21.960;2022-08-21T04:35:55;20.40;78.10
68485;DHT22;55472;50.060;21.960;2022-08-21T04:38:21;20.30;77.90
68485;DHT22;55472;50.060;21.960;2022-08-21T04:40:47;20.30;78.30
68485;DHT22;55472;50.060;21.960;2022-08-21T04:43:14;20.40;78.20
68485;DHT22;55472;50.060;21.960;2022-08-21T04:45:43;20.40;77.90
68485;DHT22;55472;50.060;21.960;2022-08-21T04:48:12;20.40;78.10
68485;DHT22;55472;50.060;21.960;2022-08-21T04:53:41;20.20;78.90
68485;DHT22;55472;50.060;21.960;2022-08-21T04:56:12;20.20;80.10
68485;DHT22;55472;50.060;21.960;2022-08-21T04:58:39;20.30;79.90
68485;DHT22;55472;50.060;21.960;2022-08-21T05:01:09;20.40;79.20
68485;DHT22;55472;50.060;21.960;2022-08-21T05:03:58;20.40;79.50
68485;DHT22;55472;50.060;21.960;2022-08-21T05:06:30;20.50;79.00
68485;DHT22;55472;50.060;21.960;2022-08-21T05:08:58;20.60;78.80
68485;DHT22;55472;50.060;21.960;2022-08-21T05:11:24;20.80;78.10
68485;DHT22;55472;50.060;21.960;2022-08-21T05:13:50;20.80;78.20
68485;DHT22;55472;50.060;21.960;2022-08-21T05:16:16;20.90;77.90
68485;DHT22;55472;50.060;21.960;2022-08-21T05:18:42;20.80;78.00
68485;DHT22;55472;50.060;21.960;2022-08-21T05:21:08;20.80;78.30
68485;DHT22;55472;50.060;21.960;2022-08-21T05:23:35;20.70;79.20
68485;DHT22;55472;50.060;21.960;2022-08-21T05:26:02;20.70;79.40
68485;DHT22;55472;50.060;21.960;2022-08-21T05:28:30;20.80;79.40
68485;DHT22;55472;50.060;21.960;2022-08-21T05:30:57;21.00;77.60
68485;DHT22;55472;50.060;21.960;2022-08-21T05:33:23;20.80;77.20
68485;DHT22;55472;50.060;21.960;2022-08-21T05:35:53;20.60;78.30
68485;DHT22;55472;50.060;21.960;2022-08-21T05:38:22;20.50;79.10
68485;DHT22;55472;50.060;21.960;2022-08-21T05:40:53;20.60;79.30
68485;DHT22;55472;50.060;21.960;2022-08-21T05:43:18;20.60;79.40
68485;DHT22;55472;50.060;21.960;2022-08-21T05:45:45;20.70;79.70
68485;DHT22;55472;50.060;21.960;2022-08-21T05:48:14;20.80;79.60
68485;DHT22;55472;50.060;21.960;2022-08-21T05:50:49;20.90;78.00
68485;DHT22;55472;50.060;21.960;2022-08-21T05:53:19;21.00;77.20
68485;DHT22;55472;50.060;21.960;2022-08-21T05:55:46;21.00;77.60
68485;DHT22;55472;50.060;21.960;2022-08-21T05:58:19;21.20;76.60
68485;DHT22;55472;50.060;21.960;2022-08-21T06:00:48;21.20;76.40
68485;DHT22;55472;50.060;21.960;2022-08-21T06:03:23;21.30;77.30
68485;DHT22;55472;50.060;21.960;2022-08-21T06:05:51;21.30;76.00
68485;DHT22;55472;50.060;21.960;2022-08-21T06:08:19;21.30;77.20
68485;DHT22;55472;50.060;21.960;2022-08-21T06:10:46;21.40;77.00
68485;DHT22;55472;50.060;21.960;2022-08-21T06:13:14;21.50;76.70
68485;DHT22;55472;50.060;21.960;2022-08-21T06:15:41;21.70;75.80
68485;DHT22;55472;50.060;21.960;2022-08-21T06:18:07;21.80;76.00
68485;DHT22;55472;50.060;21.960;2022-08-21T06:20:34;22.00;74.60
68485;DHT22;55472;50.060;21.960;2022-08-21T06:23:00;22.10;73.90
68485;DHT22;55472;50.060;21.960;2022-08-21T06:25:26;22.20;74.60
68485;DHT22;55472;50.060;21.960;2022-08-21T06:27:53;22.30;74.40
68485;DHT22;55472;50.060;21.960;2022-08-21T06:30:19;22.50;73.60
68485;DHT22;55472;50.060;21.960;2022-08-21T06:32:45;22.70;73.90
68485;DHT22;55472;50.060;21.960;2022-08-21T06:35:11;22.80;72.70
68485;DHT22;55472;50.060;21.960;2022-08-21T06:37:37;23.00;73.00
68485;DHT22;55472;50.060;21.960;2022-08-21T06:40:04;23.10;72.30
68485;DHT22;55472;50.060;21.960;2022-08-21T06:42:31;23.30;72.10
68485;DHT22;55472;50.060;21.960;2022-08-21T06:44:57;23.50;70.70
68485;DHT22;55472;50.060;21.960;2022-08-21T06:47:23;23.70;70.70
68485;DHT22;55472;50.060;21.960;2022-08-21T06:49:49;23.70;70.20
68485;DHT22;55472;50.060;21.960;2022-08-21T06:52:16;23.80;70.30
68485;DHT22;55472;50.060;21.960;2022-08-21T06:54:42;24.00;69.60
68485;DHT22;55472;50.060;21.960;2022-08-21T06:57:08;24.20;69.00
68485;DHT22;55472;50.060;21.960;2022-08-21T06:59:34;24.30;68.50
68485;DHT22;55472;50.060;21.960;2022-08-21T07:02:00;24.50;68.50
68485;DHT22;55472;50.060;21.960;2022-08-21T07:04:26;24.60;67.80
68485;DHT22;55472;50.060;21.960;2022-08-21T07:06:52;24.60;67.30
68485;DHT22;55472;50.060;21.960;2022-08-21T07:09:18;24.70;67.10
68485;DHT22;55472;50.060;21.960;2022-08-21T07:11:49;24.90;67.40
68485;DHT22;55472;50.060;21.960;2022-08-21T07:14:16;25.10;67.20
68485;DHT22;55472;50.060;21.960;2022-08-21T07:16:41;25.20;66.40
68485;DHT22;55472;50.060;21.960;2022-08-21T07:19:07;25.40;66.40
68485;DHT22;55472;50.060;21.960;2022-08-21T07:21:33;25.50;66.20
68485;DHT22;55472;50.060;21.960;2022-08-21T07:23:59;25.70;65.70
68485;DHT22;55472;50.060;21.960;2022-08-21T07:26:25;25.80;65.50
68485;DHT22;55472;50.060;21.960;2022-08-21T07:28:52;25.80;64.80
68485;DHT22;55472;50.060;21.960;2022-08-21T07:31:21;25.90;65.00
68485;DHT22;55472;50.060;21.960;2022-08-21T07:33:48;26.10;64.60
68485;DHT22;55472;50.060;21.960;2022-08-21T07:36:14;26.30;64.30
68485;DHT22;55472;50.060;21.960;2022-08-21T07:38:41;26.40;63.60
68485;DHT22;55472;50.060;21.960;2022-08-21T07:41:13;26.50;63.70
68485;DHT22;55472;50.060;21.960;2022-08-21T07:43:41;26.70;63.20
68485;DHT22;55472;50.060;21.960;2022-08-21T07:46:07;26.90;62.70
68485;DHT22;55472;50.060;21.960;2022-08-21T07:48:33;27.00;61.60
68485;DHT22;55472;50.060;21.960;2022-08-21T07:51:07;27.10;61.60
68485;DHT22;55472;50.060;21.960;2022-08-21T07:53:35;27.10;61.60
68485;DHT22;55472;50.060;21.960;2022-08-21T07:56:02;27.30;61.60
68485;DHT22;55472;50.060;21.960;2022-08-21T07:58:30;27.50;60.70
68485;DHT22;55472;50.060;21.960;2022-08-21T08:00:56;27.60;60.50
68485;DHT22;55472;50.060;21.960;2022-08-21T08:03:23;27.70;60.10
68485;DHT22;55472;50.060;21.960;2022-08-21T08:05:49;27.70;60.20
68485;DHT22;55472;50.060;21.960;2022-08-21T08:08:15;27.90;59.00
68485;DHT22;55472;50.060;21.960;2022-08-21T08:10:44;28.10;60.20
68485;DHT22;55472;50.060;21.960;2022-08-21T08:13:11;28.20;59.70
68485;DHT22;55472;50.060;21.960;2022-08-21T08:15:37;28.60;59.30
68485;DHT22;55472;50.060;21.960;2022-08-21T08:18:03;28.80;57.70
68485;DHT22;55472;50.060;21.960;2022-08-21T08:20:29;29.00;58.40
68485;DHT22;55472;50.060;21.960;2022-08-21T08:22:55;29.20;57.50
68485;DHT22;55472;50.060;21.960;2022-08-21T08:25:22;29.40;57.20
68485;DHT22;55472;50.060;21.960;2022-08-21T08:27:49;29.80;56.50
68485;DHT22;55472;50.060;21.960;2022-08-21T08:30:17;30.10;55.60
68485;DHT22;55472;50.060;21.960;2022-08-21T08:32:46;30.30;54.80
68485;DHT22;55472;50.060;21.960;2022-08-21T08:35:13;30.40;55.20
68485;DHT22;55472;50.060;21.960;2022-08-21T08:37:39;30.70;54.10
68485;DHT22;55472;50.060;21.960;2022-08-21T08:40:31;31.10;53.70
68485;DHT22;55472;50.060;21.960;2022-08-21T08:42:59;31.50;53.00
68485;DHT22;55472;50.060;21.960;2022-08-21T08:45:26;31.90;51.40
68485;DHT22;55472;50.060;21.960;2022-08-21T08:48:04;32.40;50.20
68485;DHT22;55472;50.060;21.960;2022-08-21T08:50:49;33.20;49.20
68485;DHT22;55472;50.060;21.960;2022-08-21T08:53:28;34.70;46.60
68485;DHT22;55472;50.060;21.960;2022-08-21T08:55:57;36.00;44.30
68485;DHT22;55472;50.060;21.960;2022-08-21T08:58:33;37.10;43.00
68485;DHT22;55472;50.060;21.960;2022-08-21T09:01:01;37.50;42.20
68485;DHT22;55472;50.060;21.960;2022-08-21T09:03:39;38.00;41.50
68485;DHT22;55472;50.060;21.960;2022-08-21T09:06:08;38.20;39.80
68485;DHT22;55472;50.060;21.960;2022-08-21T09:08:56;38.30;40.10
68485;DHT22;55472;50.060;21.960;2022-08-21T09:12:02;38.10;40.60
68485;DHT22;55472;50.060;21.960;2022-08-21T09:20:19;37.50;41.30
68485;DHT22;55472;50.060;21.960;2022-08-21T09:23:11;37.50;41.40
68485;DHT22;55472;50.060;21.960;2022-08-21T09:26:14;38.20;40.30
68485;DHT22;55472;50.060;21.960;2022-08-21T09:28:42;39.00;38.50
68485;DHT22;55472;50.060;21.960;2022-08-21T09:31:21;40.00;38.20
68485;DHT22;55472;50.060;21.960;2022-08-21T09:34:06;41.00;37.40
68485;DHT22;55472;50.060;21.960;2022-08-21T09:36:45;41.40;35.90
68485;DHT22;55472;50.060;21.960;2022-08-21T09:39:37;41.10;36.00
68485;DHT22;55472;50.060;21.960;2022-08-21T09:42:07;39.80;38.10
68485;DHT22;55472;50.060;21.960;2022-08-21T09:44:37;38.40;40.00
68485;DHT22;55472;50.060;21.960;2022-08-21T09:47:07;38.00;40.00
68485;DHT22;55472;50.060;21.960;2022-08-21T09:49:39;37.70;40.00
68485;DHT22;55472;50.060;21.960;2022-08-21T09:52:16;36.60;41.70
68485;DHT22;55472;50.060;21.960;2022-08-21T09:54:45;35.50;43.80
68485;DHT22;55472;50.060;21.960;2022-08-21T09:57:23;35.30;44.30
68485;DHT22;55472;50.060;21.960;2022-08-21T10:02:50;36.40;42.50
68485;DHT22;55472;50.060;21.960;2022-08-21T10:05:25;35.70;42.30
68485;DHT22;55472;50.060;21.960;2022-08-21T10:07:52;35.70;43.80
68485;DHT22;55472;50.060;21.960;2022-08-21T10:22:07;35.10;43.70
68485;DHT22;55472;50.060;21.960;2022-08-21T10:24:50;34.90;43.90
68485;DHT22;55472;50.060;21.960;2022-08-21T10:30:05;33.80;44.90
68485;DHT22;55472;50.060;21.960;2022-08-21T10:35:39;33.30;45.50
68485;DHT22;55472;50.060;21.960;2022-08-21T10:44:17;32.50;46.30
68485;DHT22;55472;50.060;21.960;2022-08-21T10:47:27;31.80;45.60
68485;DHT22;55472;50.060;21.960;2022-08-21T10:52:34;31.50;47.40
68485;DHT22;55472;50.060;21.960;2022-08-21T11:00:46;30.40;49.60
68485;DHT22;55472;50.060;21.960;2022-08-21T11:03:38;30.30;50.30
68485;DHT22;55472;50.060;21.960;2022-08-21T11:06:24;30.00;48.80
68485;DHT22;55472;50.060;21.960;2022-08-21T11:09:13;30.00;49.90
68485;DHT22;55472;50.060;21.960;2022-08-21T11:15:14;30.20;48.10
68485;DHT22;55472;50.060;21.960;2022-08-21T11:17:55;30.20;47.40
68485;DHT22;55472;50.060;21.960;2022-08-21T11:20:36;30.40;47.60
68485;DHT22;55472;50.060;21.960;2022-08-21T11:23:13;30.80;48.10
68485;DHT22;55472;50.060;21.960;2022-08-21T11:25:50;31.00;48.10
68485;DHT22;55472;50.060;21.960;2022-08-21T11:28:26;31.30;49.30
68485;DHT22;55472;50.060;21.960;2022-08-21T11:36:32;31.80;47.90
68485;DHT22;55472;50.060;21.960;2022-08-21T11:39:40;31.60;46.90
68485;DHT22;55472;50.060;21.960;2022-08-21T11:42:31;31.40;46.70
68485;DHT22;55472;50.060;21.960;2022-08-21T11:45:41;31.20;47.70
68485;DHT22;55472;50.060;21.960;2022-08-21T11:48:36;31.10;48.00
68485;DHT22;55472;50.060;21.960;2022-08-21T11:51:21;31.30;48.00
68485;DHT22;55472;50.060;21.960;2022-08-21T11:54:26;31.30;47.50
68485;DHT22;55472;50.060;21.960;2022-08-21T11:57:13;31.40;46.40
68485;DHT22;55472;50.060;21.960;2022-08-21T12:02:24;31.50;44.70
68485;DHT22;55472;50.060;21.960;2022-08-21T12:05:08;31.70;44.80
68485;DHT22;55472;50.060;21.960;2022-08-21T12:07:42;32.00;44.50
68485;DHT22;55472;50.060;21.960;2022-08-21T12:10:19;32.20;44.70
68485;DHT22;55472;50.060;21.960;2022-08-21T12:12:48;32.10;43.50
68485;DHT22;55472;50.060;21.960;2022-08-21T12:15:27;31.70;43.00
68485;DHT22;55472;50.060;21.960;2022-08-21T12:20:37;31.80;42.90
68485;DHT22;55472;50.060;21.960;2022-08-21T12:26:25;32.10;44.30
68485;DHT22;55472;50.060;21.960;2022-08-21T12:28:44;32.20;45.00
68485;DHT22;55472;50.060;21.960;2022-08-21T12:31:24;32.40;45.90
68485;DHT22;55472;50.060;21.960;2022-08-21T12:33:56;32.40;45.80
68485;DHT22;55472;50.060;21.960;2022-08-21T12:36:35;32.40;45.70
68485;DHT22;55472;50.060;21.960;2022-08-21T12:39:13;32.40;46.10
68485;DHT22;55472;50.060;21.960;2022-08-21T12:41:48;32.30;46.40
68485;DHT22;55472;50.060;21.960;2022-08-21T12:44:22;32.20;45.70
68485;DHT22;55472;50.060;21.960;2022-08-21T12:47:13;32.20;46.40
68485;DHT22;55472;50.060;21.960;2022-08-21T12:49:53;32.30;45.50
68485;DHT22;55472;50.060;21.960;2022-08-21T12:52:30;32.40;45.50
68485;DHT22;55472;50.060;21.960;2022-08-21T12:55:00;32.40;45.50
68485;DHT22;55472;50.060;21.960;2022-08-21T12:57:28;32.40;46.80
68485;DHT22;55472;50.060;21.960;2022-08-21T12:59:56;32.40;46.00
68485;DHT22;55472;50.060;21.960;2022-08-21T13:02:28;32.00;46.60
68485;DHT22;55472;50.060;21.960;2022-08-21T13:04:57;31.70;47.40
68485;DHT22;55472;50.060;21.960;2022-08-21T13:07:30;31.60;48.20
68485;DHT22;55472;50.060;21.960;2022-08-21T13:10:00;31.60;48.60
68485;DHT22;55472;50.060;21.960;2022-08-21T13:12:30;31.50;48.30
68485;DHT22;55472;50.060;21.960;2022-08-21T13:15:00;31.50;48.80
68485;DHT22;55472;50.060;21.960;2022-08-21T13:17:32;31.40;49.00
68485;DHT22;55472;50.060;21.960;2022-08-21T13:20:06;31.30;49.90
68485;DHT22;55472;50.060;21.960;2022-08-21T13:22:41;31.20;49.80
68485;DHT22;55472;50.060;21.960;2022-08-21T13:25:11;31.10;50.00
68485;DHT22;55472;50.060;21.960;2022-08-21T13:27:38;31.00;50.00
68485;DHT22;55472;50.060;21.960;2022-08-21T13:30:09;31.00;50.70
68485;DHT22;55472;50.060;21.960;2022-08-21T13:32:45;30.90;50.80
68485;DHT22;55472;50.060;21.960;2022-08-21T13:35:21;30.70;50.70
68485;DHT22;55472;50.060;21.960;2022-08-21T13:37:50;30.60;50.70
68485;DHT22;55472;50.060;21.960;2022-08-21T13:40:23;30.40;51.30
68485;DHT22;55472;50.060;21.960;2022-08-21T13:42:56;30.20;51.30
68485;DHT22;55472;50.060;21.960;2022-08-21T13:45:26;29.90;51.90
68485;DHT22;55472;50.060;21.960;2022-08-21T13:47:58;30.00;52.50
68485;DHT22;55472;50.060;21.960;2022-08-21T13:50:25;30.00;52.50
68485;DHT22;55472;50.060;21.960;2022-08-21T13:53:02;29.90;52.60
68485;DHT22;55472;50.060;21.960;2022-08-21T13:55:42;29.90;52.70
68485;DHT22;55472;50.060;21.960;2022-08-21T13:58:09;29.80;52.90
68485;DHT22;55472;50.060;21.960;2022-08-21T14:00:51;29.80;53.00
68485;DHT22;55472;50.060;21.960;2022-08-21T14:06:00;29.80;53.70
68485;DHT22;55472;50.060;21.960;2022-08-21T14:08:33;29.90;53.40
68485;DHT22;55472;50.060;21.960;2022-08-21T14:11:04;29.90;53.10
68485;DHT22;55472;50.060;21.960;2022-08-21T14:16:13;29.90;53.10
68485;DHT22;55472;50.060;21.960;2022-08-21T14:19:05;29.80;53.70
68485;DHT22;55472;50.060;21.960;2022-08-21T14:21:39;29.80;53.90
68485;DHT22;55472;50.060;21.960;2022-08-21T14:24:28;29.80;53.50
68485;DHT22;55472;50.060;21.960;2022-08-21T14:27:05;29.80;53.20
68485;DHT22;55472;50.060;21.960;2022-08-21T14:29:40;29.60;53.60
68485;DHT22;55472;50.060;21.960;2022-08-21T14:32:36;29.50;54.00
68485;DHT22;55472;50.060;21.960;2022-08-21T14:35:04;29.40;54.60
68485;DHT22;55472;50.060;21.960;2022-08-21T14:37:31;29.30;54.80
68485;DHT22;55472;50.060;21.960;2022-08-21T14:39:58;29.20;55.10
68485;DHT22;55472;50.060;21.960;2022-08-21T14:42:24;29.20;55.30
68485;DHT22;55472;50.060;21.960;2022-08-21T14:44:50;29.00;54.90
68485;DHT22;55472;50.060;21.960;2022-08-21T14:47:16;28.80;55.10
68485;DHT22;55472;50.060;21.960;2022-08-21T14:49:42;28.60;55.60
68485;DHT22;55472;50.060;21.960;2022-08-21T14:52:08;28.60;56.30
68485;DHT22;55472;50.060;21.960;2022-08-21T14:54:34;28.60;56.60
68485;DHT22;55472;50.060;21.960;2022-08-21T14:57:06;28.60;56.30
68485;DHT22;55472;50.060;21.960;2022-08-21T14:59:35;28.50;55.40
68485;DHT22;55472;50.060;21.960;2022-08-21T15:02:03;28.50;56.00
68485;DHT22;55472;50.060;21.960;2022-08-21T15:04:30;28.50;55.20
68485;DHT22;55472;50.060;21.960;2022-08-21T15:06:56;28.40;55.50
68485;DHT22;55472;50.060;21.960;2022-08-21T15:09:23;28.30;55.60
68485;DHT22;55472;50.060;21.960;2022-08-21T15:11:51;28.10;55.90
68485;DHT22;55472;50.060;21.960;2022-08-21T15:14:21;28.00;56.00
68485;DHT22;55472;50.060;21.960;2022-08-21T15:16:50;28.00;56.10
68485;DHT22;55472;50.060;21.960;2022-08-21T15:19:17;27.90;56.50
68485;DHT22;55472;50.060;21.960;2022-08-21T15:21:43;27.80;56.80
68485;DHT22;55472;50.060;21.960;2022-08-21T15:24:09;27.80;56.80
68485;DHT22;55472;50.060;21.960;2022-08-21T15:26:36;27.80;57.00
68485;DHT22;55472;50.060;21.960;2022-08-21T15:29:03;27.80;57.20
68485;DHT22;55472;50.060;21.960;2022-08-21T15:31:31;27.80;57.40
68485;DHT22;55472;50.060;21.960;2022-08-21T15:33:57;27.80;57.50
68485;DHT22;55472;50.060;21.960;2022-08-21T15:36:23;27.80;57.20
68485;DHT22;55472;50.060;21.960;2022-08-21T15:39:09;27.70;57.30
68485;DHT22;55472;50.060;21.960;2022-08-21T15:41:38;27.70;58.30
68485;DHT22;55472;50.060;21.960;2022-08-21T15:44:04;27.70;58.10
68485;DHT22;55472;50.060;21.960;2022-08-21T15:46:31;27.70;58.50
68485;DHT22;55472;50.060;21.960;2022-08-21T15:48:57;27.70;58.40
68485;DHT22;55472;50.060;21.960;2022-08-21T15:51:23;27.80;58.50
68485;DHT22;55472;50.060;21.960;2022-08-21T15:53:49;27.80;58.30
68485;DHT22;55472;50.060;21.960;2022-08-21T15:56:25;27.90;58.40
68485;DHT22;55472;50.060;21.960;2022-08-21T15:58:59;27.90;58.40
68485;DHT22;55472;50.060;21.960;2022-08-21T16:01:28;27.90;58.00
68485;DHT22;55472;50.060;21.960;2022-08-21T16:03:55;27.90;58.30
68485;DHT22;55472;50.060;21.960;2022-08-21T16:06:21;27.90;58.20
68485;DHT22;55472;50.060;21.960;2022-08-21T16:08:47;27.90;58.60
68485;DHT22;55472;50.060;21.960;2022-08-21T16:11:14;27.90;58.70
68485;DHT22;55472;50.060;21.960;2022-08-21T16:13:43;28.00;58.70
68485;DHT22;55472;50.060;21.960;2022-08-21T16:16:11;28.00;58.70
68485;DHT22;55472;50.060;21.960;2022-08-21T16:18:40;28.00;58.80
68485;DHT22;55472;50.060;21.960;2022-08-21T16:21:07;28.00;58.80
68485;DHT22;55472;50.060;21.960;2022-08-21T16:23:34;27.90;58.70
68485;DHT22;55472;50.060;21.960;2022-08-21T16:26:02;27.90;58.70
68485;DHT22;55472;50.060;21.960;2022-08-21T16:28:29;27.80;58.80
68485;DHT22;55472;50.060;21.960;2022-08-21T16:30:56;27.80;58.60
68485;DHT22;55472;50.060;21.960;2022-08-21T16:33:34;27.80;59.00
68485;DHT22;55472;50.060;21.960;2022-08-21T16:36:03;27.70;58.60
68485;DHT22;55472;50.060;21.960;2022-08-21T16:38:30;27.70;59.00
68485;DHT22;55472;50.060;21.960;2022-08-21T16:40:58;27.70;59.10
68485;DHT22;55472;50.060;21.960;2022-08-21T16:43:27;27.70;59.20